Portada
METAR-TAF:

METAR-TAF

Aeroports :

Base Aèria de Morón

Morón de la Frontera, Espanya

latitud: 37-09N, longitud: 005-37W, altitud: 87 m

Observació

L'informe es va fer fa 25 minuts, a les 15:00 UTC
Vent 13 kt del Sud-Oest, variant entre Sud i Oest
Temperatura 23°C
Humitat 57%
Pressió 1013 hPa
Visibilitat 10 km o més
Núvols disperses a una alçada de 3600 ft

METAR: LEMO 181500Z 23013KT 190V280 9999 SCT036 23/14 Q1013 NOSIG

Hora: 17:25 (15:25 UTC)

Pronòstic

L'informe es va fer fa 1 hora i 25 minuts, a les 14:00 UTC
Pronòstic vàlid del 18 a les 15 UTC al 19 a les 15 UTC
Vent 9 kt del Sud-Oest
Visibilitat 10 km o més
Núvols disperses a una alçada de 3000 ft
Probabilitat 30% :
Temporalment
l' 18 a les 15 UTC al 18 a les 19 UTC
Vent 15 kt del Oest/Sud-Oest amb ràfegues de 25 kt

TAF: LEMO 181400Z 1815/1915 23009KT 9999 SCT030 TX25/1915Z TN15/1905Z PROB30 TEMPO 1815/1819 24015G25KT

Observacions i pronòstics meteorològics de més de 4000 aeroports (METAR i TAF).

Les estacions disponibles són els punts grocs i vermells al mapa.

Posi el ratolí al punt desitjat per veure el nom de l'estació.

Feu clic per veure les observacions i els pronòstics meteorològics.

Per canviar el mapa: feu clic els botons verds amb una creu de color negre per apropar; al botó verd amb un guió per allunyar la imatge; o en les fletxes verdes per a mapes adjacents.


METAR-TAF: